sensor_id;sensor_type;location;lat;lon;timestamp;P1;durP1;ratioP1;P2;durP2;ratioP2
16928;SDS011;8581;47.334;11.190;2023-05-29T00:00:36;7.27;;;6.57;;
16928;SDS011;8581;47.334;11.190;2023-05-29T00:03:09;7.80;;;7.00;;
16928;SDS011;8581;47.334;11.190;2023-05-29T00:05:39;7.33;;;6.63;;
16928;SDS011;8581;47.334;11.190;2023-05-29T00:08:11;7.93;;;7.13;;
16928;SDS011;8581;47.334;11.190;2023-05-29T00:10:43;7.57;;;6.60;;
16928;SDS011;8581;47.334;11.190;2023-05-29T00:16:28;8.47;;;7.10;;
16928;SDS011;8581;47.334;11.190;2023-05-29T00:19:26;7.83;;;6.73;;
16928;SDS011;8581;47.334;11.190;2023-05-29T00:22:13;10.43;;;7.20;;
16928;SDS011;8581;47.334;11.190;2023-05-29T00:24:46;8.50;;;6.93;;
16928;SDS011;8581;47.334;11.190;2023-05-29T00:27:18;7.00;;;6.30;;
16928;SDS011;8581;47.334;11.190;2023-05-29T00:32:45;9.03;;;7.60;;
16928;SDS011;8581;47.334;11.190;2023-05-29T00:35:24;9.10;;;7.20;;
16928;SDS011;8581;47.334;11.190;2023-05-29T00:38:11;10.10;;;7.77;;
16928;SDS011;8581;47.334;11.190;2023-05-29T00:40:58;7.70;;;6.97;;
16928;SDS011;8581;47.334;11.190;2023-05-29T00:43:35;8.00;;;7.20;;
16928;SDS011;8581;47.334;11.190;2023-05-29T00:46:25;8.83;;;7.63;;
16928;SDS011;8581;47.334;11.190;2023-05-29T00:49:15;8.93;;;7.23;;
16928;SDS011;8581;47.334;11.190;2023-05-29T00:52:02;8.63;;;6.70;;
16928;SDS011;8581;47.334;11.190;2023-05-29T00:54:45;9.77;;;7.40;;
16928;SDS011;8581;47.334;11.190;2023-05-29T00:57:43;9.43;;;7.87;;
16928;SDS011;8581;47.334;11.190;2023-05-29T01:00:22;8.50;;;7.60;;
16928;SDS011;8581;47.334;11.190;2023-05-29T01:06:28;10.83;;;8.33;;
16928;SDS011;8581;47.334;11.190;2023-05-29T01:18:39;8.10;;;7.07;;
16928;SDS011;8581;47.334;11.190;2023-05-29T01:27:03;9.27;;;7.23;;
16928;SDS011;8581;47.334;11.190;2023-05-29T01:29:39;8.93;;;8.03;;
16928;SDS011;8581;47.334;11.190;2023-05-29T01:32:11;9.07;;;7.50;;
16928;SDS011;8581;47.334;11.190;2023-05-29T01:35:07;8.23;;;7.43;;
16928;SDS011;8581;47.334;11.190;2023-05-29T01:37:41;8.93;;;6.80;;
16928;SDS011;8581;47.334;11.190;2023-05-29T01:40:13;10.70;;;7.83;;
16928;SDS011;8581;47.334;11.190;2023-05-29T01:42:45;7.77;;;7.07;;
16928;SDS011;8581;47.334;11.190;2023-05-29T01:45:16;8.03;;;7.33;;
16928;SDS011;8581;47.334;11.190;2023-05-29T01:47:48;8.83;;;7.30;;
16928;SDS011;8581;47.334;11.190;2023-05-29T01:50:20;8.23;;;7.53;;
16928;SDS011;8581;47.334;11.190;2023-05-29T01:52:51;8.43;;;7.53;;
16928;SDS011;8581;47.334;11.190;2023-05-29T01:55:23;9.83;;;7.90;;
16928;SDS011;8581;47.334;11.190;2023-05-29T01:57:55;9.00;;;8.00;;
16928;SDS011;8581;47.334;11.190;2023-05-29T02:00:27;9.33;;;7.87;;
16928;SDS011;8581;47.334;11.190;2023-05-29T02:02:58;8.47;;;7.50;;
16928;SDS011;8581;47.334;11.190;2023-05-29T02:05:30;9.13;;;8.00;;
16928;SDS011;8581;47.334;11.190;2023-05-29T02:08:02;9.50;;;7.90;;
16928;SDS011;8581;47.334;11.190;2023-05-29T02:10:33;8.57;;;6.90;;
16928;SDS011;8581;47.334;11.190;2023-05-29T02:13:05;8.33;;;7.30;;
16928;SDS011;8581;47.334;11.190;2023-05-29T02:15:36;8.53;;;7.60;;
16928;SDS011;8581;47.334;11.190;2023-05-29T02:18:10;9.77;;;8.20;;
16928;SDS011;8581;47.334;11.190;2023-05-29T02:20:40;8.93;;;7.50;;
16928;SDS011;8581;47.334;11.190;2023-05-29T02:23:12;8.53;;;7.63;;
16928;SDS011;8581;47.334;11.190;2023-05-29T02:25:44;9.03;;;8.13;;
16928;SDS011;8581;47.334;11.190;2023-05-29T02:28:15;9.10;;;8.17;;
16928;SDS011;8581;47.334;11.190;2023-05-29T02:30:47;9.40;;;7.87;;
16928;SDS011;8581;47.334;11.190;2023-05-29T02:33:18;11.17;;;8.57;;
16928;SDS011;8581;47.334;11.190;2023-05-29T02:35:50;10.27;;;9.27;;
16928;SDS011;8581;47.334;11.190;2023-05-29T02:38:22;10.47;;;9.37;;
16928;SDS011;8581;47.334;11.190;2023-05-29T02:40:53;12.20;;;9.03;;
16928;SDS011;8581;47.334;11.190;2023-05-29T02:43:25;14.57;;;9.10;;
16928;SDS011;8581;47.334;11.190;2023-05-29T02:45:56;11.30;;;9.00;;
16928;SDS011;8581;47.334;11.190;2023-05-29T02:48:28;12.33;;;9.27;;
16928;SDS011;8581;47.334;11.190;2023-05-29T02:51:00;13.30;;;10.23;;
16928;SDS011;8581;47.334;11.190;2023-05-29T02:53:31;9.97;;;8.97;;
16928;SDS011;8581;47.334;11.190;2023-05-29T02:56:03;9.53;;;8.60;;
16928;SDS011;8581;47.334;11.190;2023-05-29T02:58:35;9.23;;;8.33;;
16928;SDS011;8581;47.334;11.190;2023-05-29T03:01:06;9.30;;;8.33;;
16928;SDS011;8581;47.334;11.190;2023-05-29T03:03:38;10.67;;;9.50;;
16928;SDS011;8581;47.334;11.190;2023-05-29T03:06:09;10.77;;;9.17;;
16928;SDS011;8581;47.334;11.190;2023-05-29T03:08:41;9.73;;;8.70;;
16928;SDS011;8581;47.334;11.190;2023-05-29T03:11:13;11.13;;;8.60;;
16928;SDS011;8581;47.334;11.190;2023-05-29T03:13:44;11.53;;;9.17;;
16928;SDS011;8581;47.334;11.190;2023-05-29T03:16:16;10.17;;;8.97;;
16928;SDS011;8581;47.334;11.190;2023-05-29T03:18:48;11.10;;;9.70;;
16928;SDS011;8581;47.334;11.190;2023-05-29T03:21:19;9.57;;;8.63;;
16928;SDS011;8581;47.334;11.190;2023-05-29T03:23:51;9.70;;;8.43;;
16928;SDS011;8581;47.334;11.190;2023-05-29T03:26:22;9.07;;;8.03;;
16928;SDS011;8581;47.334;11.190;2023-05-29T03:28:54;9.43;;;8.53;;
16928;SDS011;8581;47.334;11.190;2023-05-29T03:31:25;10.53;;;9.30;;
16928;SDS011;8581;47.334;11.190;2023-05-29T03:33:57;10.03;;;9.00;;
16928;SDS011;8581;47.334;11.190;2023-05-29T03:36:29;12.97;;;9.93;;
16928;SDS011;8581;47.334;11.190;2023-05-29T03:39:00;10.73;;;8.93;;
16928;SDS011;8581;47.334;11.190;2023-05-29T03:41:32;9.87;;;7.90;;
16928;SDS011;8581;47.334;11.190;2023-05-29T03:44:03;9.33;;;8.43;;
16928;SDS011;8581;47.334;11.190;2023-05-29T03:46:36;10.17;;;8.20;;
16928;SDS011;8581;47.334;11.190;2023-05-29T03:49:08;9.47;;;7.90;;
16928;SDS011;8581;47.334;11.190;2023-05-29T03:51:40;9.50;;;8.07;;
16928;SDS011;8581;47.334;11.190;2023-05-29T03:54:11;9.67;;;8.10;;
16928;SDS011;8581;47.334;11.190;2023-05-29T03:56:43;9.07;;;8.17;;
16928;SDS011;8581;47.334;11.190;2023-05-29T03:59:15;9.40;;;8.50;;
16928;SDS011;8581;47.334;11.190;2023-05-29T04:01:46;8.67;;;7.87;;
16928;SDS011;8581;47.334;11.190;2023-05-29T04:04:18;9.37;;;8.20;;
16928;SDS011;8581;47.334;11.190;2023-05-29T04:06:49;10.50;;;8.20;;
16928;SDS011;8581;47.334;11.190;2023-05-29T04:09:21;9.37;;;8.37;;
16928;SDS011;8581;47.334;11.190;2023-05-29T04:11:53;9.07;;;8.17;;
16928;SDS011;8581;47.334;11.190;2023-05-29T04:14:24;8.40;;;7.67;;
16928;SDS011;8581;47.334;11.190;2023-05-29T04:16:56;8.80;;;7.90;;
16928;SDS011;8581;47.334;11.190;2023-05-29T04:19:27;8.97;;;8.07;;
16928;SDS011;8581;47.334;11.190;2023-05-29T04:21:59;9.30;;;8.20;;
16928;SDS011;8581;47.334;11.190;2023-05-29T04:24:30;9.23;;;8.33;;
16928;SDS011;8581;47.334;11.190;2023-05-29T04:27:03;9.37;;;8.23;;
16928;SDS011;8581;47.334;11.190;2023-05-29T04:29:34;9.30;;;8.13;;
16928;SDS011;8581;47.334;11.190;2023-05-29T04:32:06;9.20;;;8.30;;
16928;SDS011;8581;47.334;11.190;2023-05-29T04:34:38;9.00;;;7.73;;
16928;SDS011;8581;47.334;11.190;2023-05-29T04:37:10;9.10;;;8.00;;
16928;SDS011;8581;47.334;11.190;2023-05-29T04:39:42;9.17;;;8.27;;
16928;SDS011;8581;47.334;11.190;2023-05-29T04:42:13;10.37;;;8.23;;
16928;SDS011;8581;47.334;11.190;2023-05-29T04:44:45;10.23;;;8.00;;
16928;SDS011;8581;47.334;11.190;2023-05-29T04:47:16;8.67;;;7.83;;
16928;SDS011;8581;47.334;11.190;2023-05-29T04:49:48;9.43;;;8.37;;
16928;SDS011;8581;47.334;11.190;2023-05-29T04:52:20;8.83;;;7.90;;
16928;SDS011;8581;47.334;11.190;2023-05-29T04:54:52;9.70;;;8.67;;
16928;SDS011;8581;47.334;11.190;2023-05-29T04:57:23;11.20;;;8.67;;
16928;SDS011;8581;47.334;11.190;2023-05-29T04:59:55;9.60;;;8.60;;
16928;SDS011;8581;47.334;11.190;2023-05-29T05:02:26;9.60;;;8.60;;
16928;SDS011;8581;47.334;11.190;2023-05-29T05:04:58;10.07;;;9.07;;
16928;SDS011;8581;47.334;11.190;2023-05-29T05:07:30;10.87;;;9.17;;
16928;SDS011;8581;47.334;11.190;2023-05-29T05:10:02;11.40;;;9.43;;
16928;SDS011;8581;47.334;11.190;2023-05-29T05:12:33;10.47;;;9.47;;
16928;SDS011;8581;47.334;11.190;2023-05-29T05:15:05;10.97;;;9.90;;
16928;SDS011;8581;47.334;11.190;2023-05-29T05:17:37;10.83;;;9.73;;
16928;SDS011;8581;47.334;11.190;2023-05-29T05:20:09;10.40;;;9.30;;
16928;SDS011;8581;47.334;11.190;2023-05-29T05:22:42;9.90;;;8.90;;
16928;SDS011;8581;47.334;11.190;2023-05-29T05:25:13;10.93;;;9.93;;
16928;SDS011;8581;47.334;11.190;2023-05-29T05:27:45;11.33;;;9.53;;
16928;SDS011;8581;47.334;11.190;2023-05-29T05:30:16;10.27;;;9.30;;
16928;SDS011;8581;47.334;11.190;2023-05-29T05:32:48;13.27;;;8.97;;
16928;SDS011;8581;47.334;11.190;2023-05-29T05:35:20;9.33;;;8.43;;
16928;SDS011;8581;47.334;11.190;2023-05-29T05:37:51;9.73;;;8.37;;
16928;SDS011;8581;47.334;11.190;2023-05-29T05:40:23;9.43;;;8.43;;
16928;SDS011;8581;47.334;11.190;2023-05-29T05:42:54;8.73;;;7.83;;
16928;SDS011;8581;47.334;11.190;2023-05-29T05:45:26;8.03;;;7.20;;
16928;SDS011;8581;47.334;11.190;2023-05-29T05:47:58;8.10;;;7.33;;
16928;SDS011;8581;47.334;11.190;2023-05-29T05:50:29;8.77;;;6.43;;
16928;SDS011;8581;47.334;11.190;2023-05-29T05:53:01;7.07;;;5.73;;
16928;SDS011;8581;47.334;11.190;2023-05-29T05:55:32;8.57;;;5.83;;
16928;SDS011;8581;47.334;11.190;2023-05-29T05:58:04;6.47;;;5.60;;
16928;SDS011;8581;47.334;11.190;2023-05-29T06:00:35;6.70;;;5.60;;
16928;SDS011;8581;47.334;11.190;2023-05-29T06:03:07;8.87;;;6.10;;
16928;SDS011;8581;47.334;11.190;2023-05-29T06:05:39;8.73;;;6.27;;
16928;SDS011;8581;47.334;11.190;2023-05-29T06:08:11;8.50;;;5.63;;
16928;SDS011;8581;47.334;11.190;2023-05-29T06:10:42;8.17;;;5.40;;
16928;SDS011;8581;47.334;11.190;2023-05-29T06:13:14;8.53;;;5.00;;
16928;SDS011;8581;47.334;11.190;2023-05-29T06:15:45;7.40;;;5.40;;
16928;SDS011;8581;47.334;11.190;2023-05-29T06:18:17;5.80;;;4.70;;
16928;SDS011;8581;47.334;11.190;2023-05-29T06:20:49;6.73;;;4.77;;
16928;SDS011;8581;47.334;11.190;2023-05-29T06:23:20;6.67;;;4.83;;
16928;SDS011;8581;47.334;11.190;2023-05-29T06:25:52;5.60;;;4.70;;
16928;SDS011;8581;47.334;11.190;2023-05-29T06:28:24;7.10;;;4.70;;
16928;SDS011;8581;47.334;11.190;2023-05-29T06:30:55;5.70;;;4.43;;
16928;SDS011;8581;47.334;11.190;2023-05-29T06:33:27;7.23;;;4.67;;
16928;SDS011;8581;47.334;11.190;2023-05-29T06:35:58;5.50;;;4.07;;
16928;SDS011;8581;47.334;11.190;2023-05-29T06:38:30;7.37;;;4.60;;
16928;SDS011;8581;47.334;11.190;2023-05-29T06:41:01;5.57;;;4.10;;
16928;SDS011;8581;47.334;11.190;2023-05-29T06:43:33;4.87;;;4.07;;
16928;SDS011;8581;47.334;11.190;2023-05-29T06:46:05;4.03;;;3.63;;
16928;SDS011;8581;47.334;11.190;2023-05-29T06:48:36;5.27;;;4.20;;
16928;SDS011;8581;47.334;11.190;2023-05-29T06:51:08;5.53;;;4.17;;
16928;SDS011;8581;47.334;11.190;2023-05-29T06:53:40;5.80;;;4.43;;
16928;SDS011;8581;47.334;11.190;2023-05-29T06:56:11;5.33;;;4.07;;
16928;SDS011;8581;47.334;11.190;2023-05-29T06:58:43;7.67;;;4.77;;
16928;SDS011;8581;47.334;11.190;2023-05-29T07:01:14;4.87;;;3.60;;
16928;SDS011;8581;47.334;11.190;2023-05-29T07:03:46;5.90;;;4.27;;
16928;SDS011;8581;47.334;11.190;2023-05-29T07:06:18;5.57;;;4.47;;
16928;SDS011;8581;47.334;11.190;2023-05-29T07:08:49;4.90;;;3.80;;
16928;SDS011;8581;47.334;11.190;2023-05-29T07:11:21;4.10;;;3.70;;
16928;SDS011;8581;47.334;11.190;2023-05-29T07:13:53;4.03;;;3.63;;
16928;SDS011;8581;47.334;11.190;2023-05-29T07:16:25;4.23;;;3.70;;
16928;SDS011;8581;47.334;11.190;2023-05-29T07:18:57;6.53;;;3.90;;
16928;SDS011;8581;47.334;11.190;2023-05-29T07:21:28;5.13;;;4.53;;
16928;SDS011;8581;47.334;11.190;2023-05-29T07:24:00;5.03;;;3.73;;
16928;SDS011;8581;47.334;11.190;2023-05-29T07:26:31;4.50;;;3.90;;
16928;SDS011;8581;47.334;11.190;2023-05-29T07:29:03;4.70;;;4.07;;
16928;SDS011;8581;47.334;11.190;2023-05-29T07:31:35;4.33;;;3.90;;
16928;SDS011;8581;47.334;11.190;2023-05-29T07:34:06;4.93;;;4.00;;
16928;SDS011;8581;47.334;11.190;2023-05-29T07:36:47;5.87;;;3.70;;
16928;SDS011;8581;47.334;11.190;2023-05-29T07:39:09;6.07;;;4.30;;
16928;SDS011;8581;47.334;11.190;2023-05-29T07:41:41;5.30;;;4.07;;
16928;SDS011;8581;47.334;11.190;2023-05-29T07:44:12;6.47;;;4.03;;
16928;SDS011;8581;47.334;11.190;2023-05-29T07:46:44;4.27;;;3.87;;
16928;SDS011;8581;47.334;11.190;2023-05-29T07:49:16;5.67;;;3.90;;
16928;SDS011;8581;47.334;11.190;2023-05-29T07:51:47;5.37;;;3.63;;
16928;SDS011;8581;47.334;11.190;2023-05-29T07:54:19;6.97;;;4.10;;
16928;SDS011;8581;47.334;11.190;2023-05-29T07:56:50;4.73;;;3.93;;
16928;SDS011;8581;47.334;11.190;2023-05-29T07:59:22;4.13;;;3.67;;
16928;SDS011;8581;47.334;11.190;2023-05-29T08:01:54;5.87;;;3.83;;
16928;SDS011;8581;47.334;11.190;2023-05-29T08:04:25;5.23;;;3.97;;
16928;SDS011;8581;47.334;11.190;2023-05-29T08:06:57;6.23;;;4.00;;
16928;SDS011;8581;47.334;11.190;2023-05-29T08:09:29;4.23;;;3.70;;
16928;SDS011;8581;47.334;11.190;2023-05-29T08:12:00;4.17;;;3.73;;
16928;SDS011;8581;47.334;11.190;2023-05-29T08:14:35;4.93;;;3.70;;
16928;SDS011;8581;47.334;11.190;2023-05-29T08:17:06;4.30;;;3.67;;
16928;SDS011;8581;47.334;11.190;2023-05-29T08:19:38;5.13;;;4.00;;
16928;SDS011;8581;47.334;11.190;2023-05-29T08:22:12;6.23;;;4.07;;
16928;SDS011;8581;47.334;11.190;2023-05-29T08:24:41;4.77;;;3.77;;
16928;SDS011;8581;47.334;11.190;2023-05-29T08:30:07;4.80;;;4.27;;
16928;SDS011;8581;47.334;11.190;2023-05-29T08:32:43;4.20;;;3.80;;
16928;SDS011;8581;47.334;11.190;2023-05-29T08:35:33;4.87;;;3.70;;
16928;SDS011;8581;47.334;11.190;2023-05-29T08:38:23;5.40;;;4.13;;
16928;SDS011;8581;47.334;11.190;2023-05-29T08:40:55;7.63;;;4.00;;
16928;SDS011;8581;47.334;11.190;2023-05-29T08:43:30;6.83;;;4.07;;
16928;SDS011;8581;47.334;11.190;2023-05-29T08:46:03;4.80;;;3.80;;
16928;SDS011;8581;47.334;11.190;2023-05-29T08:48:34;5.90;;;3.75;;
16928;SDS011;8581;47.334;11.190;2023-05-29T08:51:06;4.63;;;3.97;;
16928;SDS011;8581;47.334;11.190;2023-05-29T08:53:38;4.00;;;3.65;;
16928;SDS011;8581;47.334;11.190;2023-05-29T08:56:09;4.72;;;3.85;;
16928;SDS011;8581;47.334;11.190;2023-05-29T08:58:41;5.97;;;3.50;;
16928;SDS011;8581;47.334;11.190;2023-05-29T09:01:12;4.72;;;3.58;;
16928;SDS011;8581;47.334;11.190;2023-05-29T09:03:44;4.58;;;3.52;;
16928;SDS011;8581;47.334;11.190;2023-05-29T09:06:16;4.50;;;3.45;;
16928;SDS011;8581;47.334;11.190;2023-05-29T09:08:47;4.05;;;3.65;;
16928;SDS011;8581;47.334;11.190;2023-05-29T09:11:19;4.42;;;3.42;;
16928;SDS011;8581;47.334;11.190;2023-05-29T09:13:51;4.00;;;3.42;;
16928;SDS011;8581;47.334;11.190;2023-05-29T09:16:22;6.55;;;3.85;;
16928;SDS011;8581;47.334;11.190;2023-05-29T09:19:04;4.30;;;3.60;;
16928;SDS011;8581;47.334;11.190;2023-05-29T09:21:31;3.98;;;3.33;;
16928;SDS011;8581;47.334;11.190;2023-05-29T09:24:03;4.30;;;3.27;;
16928;SDS011;8581;47.334;11.190;2023-05-29T09:26:35;4.67;;;3.70;;
16928;SDS011;8581;47.334;11.190;2023-05-29T09:29:06;4.75;;;3.77;;
16928;SDS011;8581;47.334;11.190;2023-05-29T09:31:38;4.85;;;3.37;;
16928;SDS011;8581;47.334;11.190;2023-05-29T09:34:09;4.22;;;3.80;;
16928;SDS011;8581;47.334;11.190;2023-05-29T09:36:41;3.80;;;3.40;;
16928;SDS011;8581;47.334;11.190;2023-05-29T09:39:13;6.20;;;3.85;;
16928;SDS011;8581;47.334;11.190;2023-05-29T09:41:44;6.50;;;3.80;;
16928;SDS011;8581;47.334;11.190;2023-05-29T09:44:16;4.65;;;4.15;;
16928;SDS011;8581;47.334;11.190;2023-05-29T09:46:48;6.03;;;4.03;;
16928;SDS011;8581;47.334;11.190;2023-05-29T09:49:19;9.75;;;3.75;;
16928;SDS011;8581;47.334;11.190;2023-05-29T09:51:53;4.35;;;3.72;;
16928;SDS011;8581;47.334;11.190;2023-05-29T09:54:26;10.35;;;3.90;;
16928;SDS011;8581;47.334;11.190;2023-05-29T09:56:58;3.52;;;3.22;;
16928;SDS011;8581;47.334;11.190;2023-05-29T09:59:29;3.92;;;3.52;;
16928;SDS011;8581;47.334;11.190;2023-05-29T10:02:02;3.70;;;3.27;;
16928;SDS011;8581;47.334;11.190;2023-05-29T10:04:33;4.12;;;3.60;;
16928;SDS011;8581;47.334;11.190;2023-05-29T10:07:08;4.08;;;3.30;;
16928;SDS011;8581;47.334;11.190;2023-05-29T10:09:41;3.52;;;3.22;;
16928;SDS011;8581;47.334;11.190;2023-05-29T10:12:11;3.12;;;2.72;;
16928;SDS011;8581;47.334;11.190;2023-05-29T10:14:43;4.58;;;3.12;;
16928;SDS011;8581;47.334;11.190;2023-05-29T10:17:15;3.22;;;2.92;;
16928;SDS011;8581;47.334;11.190;2023-05-29T10:19:46;4.10;;;3.20;;
16928;SDS011;8581;47.334;11.190;2023-05-29T10:22:19;3.37;;;3.08;;
16928;SDS011;8581;47.334;11.190;2023-05-29T10:24:49;4.25;;;3.22;;
16928;SDS011;8581;47.334;11.190;2023-05-29T10:27:21;3.22;;;2.90;;
16928;SDS011;8581;47.334;11.190;2023-05-29T10:29:56;3.58;;;3.27;;
16928;SDS011;8581;47.334;11.190;2023-05-29T10:32:29;3.30;;;3.00;;
16928;SDS011;8581;47.334;11.190;2023-05-29T10:37:57;3.42;;;3.12;;
16928;SDS011;8581;47.334;11.190;2023-05-29T10:40:29;3.65;;;3.27;;
16928;SDS011;8581;47.334;11.190;2023-05-29T10:43:02;3.77;;;3.35;;
16928;SDS011;8581;47.334;11.190;2023-05-29T10:48:38;3.58;;;3.27;;
16928;SDS011;8581;47.334;11.190;2023-05-29T10:51:23;3.17;;;2.83;;
16928;SDS011;8581;47.334;11.190;2023-05-29T10:53:41;3.50;;;3.00;;
16928;SDS011;8581;47.334;11.190;2023-05-29T10:56:15;3.45;;;3.00;;
16928;SDS011;8581;47.334;11.190;2023-05-29T10:58:49;3.35;;;2.90;;
16928;SDS011;8581;47.334;11.190;2023-05-29T11:01:17;4.17;;;3.35;;
16928;SDS011;8581;47.334;11.190;2023-05-29T11:03:49;3.83;;;3.22;;
16928;SDS011;8581;47.334;11.190;2023-05-29T11:06:21;4.55;;;3.20;;
16928;SDS011;8581;47.334;11.190;2023-05-29T11:08:53;5.47;;;3.10;;
16928;SDS011;8581;47.334;11.190;2023-05-29T11:11:30;4.92;;;3.45;;
16928;SDS011;8581;47.334;11.190;2023-05-29T11:14:03;4.00;;;3.60;;
16928;SDS011;8581;47.334;11.190;2023-05-29T11:16:36;3.42;;;3.12;;
16928;SDS011;8581;47.334;11.190;2023-05-29T11:19:07;4.87;;;3.08;;
16928;SDS011;8581;47.334;11.190;2023-05-29T11:24:26;4.58;;;3.40;;
16928;SDS011;8581;47.334;11.190;2023-05-29T11:26:57;2.98;;;2.70;;
16928;SDS011;8581;47.334;11.190;2023-05-29T11:29:29;3.27;;;2.98;;
16928;SDS011;8581;47.334;11.190;2023-05-29T11:32:02;3.00;;;2.70;;
16928;SDS011;8581;47.334;11.190;2023-05-29T11:34:33;6.78;;;3.72;;
16928;SDS011;8581;47.334;11.190;2023-05-29T11:37:04;8.80;;;8.18;;
16928;SDS011;8581;47.334;11.190;2023-05-29T11:39:37;3.00;;;2.80;;
16928;SDS011;8581;47.334;11.190;2023-05-29T11:42:08;3.12;;;2.85;;
16928;SDS011;8581;47.334;11.190;2023-05-29T11:44:39;4.33;;;3.00;;
16928;SDS011;8581;47.334;11.190;2023-05-29T11:47:11;6.78;;;3.40;;
16928;SDS011;8581;47.334;11.190;2023-05-29T11:49:42;3.60;;;3.30;;
16928;SDS011;8581;47.334;11.190;2023-05-29T11:52:14;4.62;;;3.10;;
16928;SDS011;8581;47.334;11.190;2023-05-29T11:54:46;3.98;;;3.60;;
16928;SDS011;8581;47.334;11.190;2023-05-29T11:57:19;3.77;;;3.30;;
16928;SDS011;8581;47.334;11.190;2023-05-29T11:59:50;4.05;;;3.10;;
16928;SDS011;8581;47.334;11.190;2023-05-29T12:02:23;4.08;;;3.60;;
16928;SDS011;8581;47.334;11.190;2023-05-29T12:04:59;4.42;;;3.37;;
16928;SDS011;8581;47.334;11.190;2023-05-29T12:07:30;9.60;;;8.73;;
16928;SDS011;8581;47.334;11.190;2023-05-29T12:10:08;20.20;;;18.23;;
16928;SDS011;8581;47.334;11.190;2023-05-29T12:12:50;17.37;;;15.72;;
16928;SDS011;8581;47.334;11.190;2023-05-29T12:15:19;20.02;;;18.15;;
16928;SDS011;8581;47.334;11.190;2023-05-29T12:17:52;14.98;;;13.55;;
16928;SDS011;8581;47.334;11.190;2023-05-29T12:20:23;6.45;;;5.87;;
16928;SDS011;8581;47.334;11.190;2023-05-29T12:22:58;5.12;;;3.85;;
16928;SDS011;8581;47.334;11.190;2023-05-29T12:25:26;3.80;;;3.47;;
16928;SDS011;8581;47.334;11.190;2023-05-29T12:27:58;3.77;;;3.45;;
16928;SDS011;8581;47.334;11.190;2023-05-29T12:30:29;5.05;;;3.60;;
16928;SDS011;8581;47.334;11.190;2023-05-29T12:33:01;3.58;;;3.27;;
16928;SDS011;8581;47.334;11.190;2023-05-29T12:35:33;4.37;;;3.17;;
16928;SDS011;8581;47.334;11.190;2023-05-29T12:38:05;3.87;;;3.47;;
16928;SDS011;8581;47.334;11.190;2023-05-29T12:40:36;4.97;;;3.72;;
16928;SDS011;8581;47.334;11.190;2023-05-29T12:43:08;4.15;;;3.42;;
16928;SDS011;8581;47.334;11.190;2023-05-29T12:45:40;3.67;;;3.37;;
16928;SDS011;8581;47.334;11.190;2023-05-29T12:48:12;8.73;;;7.92;;
16928;SDS011;8581;47.334;11.190;2023-05-29T12:50:43;5.85;;;5.35;;
16928;SDS011;8581;47.334;11.190;2023-05-29T12:53:15;4.75;;;3.45;;
16928;SDS011;8581;47.334;11.190;2023-05-29T12:55:46;3.75;;;3.40;;
16928;SDS011;8581;47.334;11.190;2023-05-29T12:58:18;4.33;;;3.50;;
16928;SDS011;8581;47.334;11.190;2023-05-29T13:00:52;3.77;;;3.47;;
16928;SDS011;8581;47.334;11.190;2023-05-29T13:03:21;3.80;;;3.42;;
16928;SDS011;8581;47.334;11.190;2023-05-29T13:05:54;6.33;;;3.37;;
16928;SDS011;8581;47.334;11.190;2023-05-29T13:08:26;6.45;;;3.80;;
16928;SDS011;8581;47.334;11.190;2023-05-29T13:10:57;3.60;;;3.30;;
16928;SDS011;8581;47.334;11.190;2023-05-29T13:13:29;3.92;;;3.52;;
16928;SDS011;8581;47.334;11.190;2023-05-29T13:16:00;4.03;;;3.72;;
16928;SDS011;8581;47.334;11.190;2023-05-29T13:18:32;4.53;;;3.50;;
16928;SDS011;8581;47.334;11.190;2023-05-29T13:21:04;5.65;;;4.58;;
16928;SDS011;8581;47.334;11.190;2023-05-29T13:23:35;4.53;;;3.70;;
16928;SDS011;8581;47.334;11.190;2023-05-29T13:26:07;4.00;;;3.60;;
16928;SDS011;8581;47.334;11.190;2023-05-29T13:28:40;3.42;;;3.12;;
16928;SDS011;8581;47.334;11.190;2023-05-29T13:31:11;3.60;;;3.30;;
16928;SDS011;8581;47.334;11.190;2023-05-29T13:33:43;4.95;;;3.77;;
16928;SDS011;8581;47.334;11.190;2023-05-29T13:36:15;3.92;;;3.52;;
16928;SDS011;8581;47.334;11.190;2023-05-29T13:38:46;4.37;;;3.80;;
16928;SDS011;8581;47.334;11.190;2023-05-29T13:41:18;4.03;;;3.62;;
16928;SDS011;8581;47.334;11.190;2023-05-29T13:43:49;4.00;;;3.60;;
16928;SDS011;8581;47.334;11.190;2023-05-29T13:46:21;3.90;;;3.35;;
16928;SDS011;8581;47.334;11.190;2023-05-29T13:48:53;4.05;;;3.65;;
16928;SDS011;8581;47.334;11.190;2023-05-29T13:51:24;5.62;;;3.80;;
16928;SDS011;8581;47.334;11.190;2023-05-29T13:53:56;5.92;;;3.80;;
16928;SDS011;8581;47.334;11.190;2023-05-29T13:56:27;4.87;;;4.37;;
16928;SDS011;8581;47.334;11.190;2023-05-29T13:58:59;5.50;;;3.27;;
16928;SDS011;8581;47.334;11.190;2023-05-29T14:01:31;3.62;;;3.33;;
16928;SDS011;8581;47.334;11.190;2023-05-29T14:04:02;6.65;;;3.80;;
16928;SDS011;8581;47.334;11.190;2023-05-29T14:06:34;4.47;;;4.08;;
16928;SDS011;8581;47.334;11.190;2023-05-29T14:09:05;5.05;;;3.60;;
16928;SDS011;8581;47.334;11.190;2023-05-29T14:11:37;3.85;;;3.45;;
16928;SDS011;8581;47.334;11.190;2023-05-29T14:14:09;6.10;;;3.65;;
16928;SDS011;8581;47.334;11.190;2023-05-29T14:16:40;4.20;;;3.80;;
16928;SDS011;8581;47.334;11.190;2023-05-29T14:19:12;4.20;;;3.80;;
16928;SDS011;8581;47.334;11.190;2023-05-29T14:21:44;4.50;;;3.45;;
16928;SDS011;8581;47.334;11.190;2023-05-29T14:24:16;5.47;;;3.98;;
16928;SDS011;8581;47.334;11.190;2023-05-29T14:26:47;4.00;;;3.60;;
16928;SDS011;8581;47.334;11.190;2023-05-29T14:29:19;4.37;;;3.40;;
16928;SDS011;8581;47.334;11.190;2023-05-29T14:31:50;5.28;;;3.85;;
16928;SDS011;8581;47.334;11.190;2023-05-29T14:34:22;5.62;;;3.80;;
16928;SDS011;8581;47.334;11.190;2023-05-29T14:36:54;4.35;;;3.98;;
16928;SDS011;8581;47.334;11.190;2023-05-29T14:39:25;4.20;;;3.80;;
16928;SDS011;8581;47.334;11.190;2023-05-29T14:41:57;4.25;;;3.60;;
16928;SDS011;8581;47.334;11.190;2023-05-29T14:44:28;3.83;;;3.42;;
16928;SDS011;8581;47.334;11.190;2023-05-29T14:47:00;5.47;;;3.27;;
16928;SDS011;8581;47.334;11.190;2023-05-29T14:49:32;4.83;;;3.20;;
16928;SDS011;8581;47.334;11.190;2023-05-29T14:52:04;4.40;;;4.00;;
16928;SDS011;8581;47.334;11.190;2023-05-29T14:54:36;4.30;;;3.90;;
16928;SDS011;8581;47.334;11.190;2023-05-29T14:57:08;4.67;;;3.40;;
16928;SDS011;8581;47.334;11.190;2023-05-29T14:59:40;5.20;;;3.55;;
16928;SDS011;8581;47.334;11.190;2023-05-29T15:02:11;3.90;;;3.50;;
16928;SDS011;8581;47.334;11.190;2023-05-29T15:04:43;5.12;;;3.98;;
16928;SDS011;8581;47.334;11.190;2023-05-29T15:07:15;4.20;;;3.80;;
16928;SDS011;8581;47.334;11.190;2023-05-29T15:09:46;3.80;;;3.42;;
16928;SDS011;8581;47.334;11.190;2023-05-29T15:12:18;4.03;;;3.62;;
16928;SDS011;8581;47.334;11.190;2023-05-29T15:14:49;4.40;;;3.87;;
16928;SDS011;8581;47.334;11.190;2023-05-29T15:17:21;5.12;;;3.85;;
16928;SDS011;8581;47.334;11.190;2023-05-29T15:19:52;4.20;;;3.80;;
16928;SDS011;8581;47.334;11.190;2023-05-29T15:22:24;5.53;;;3.50;;
16928;SDS011;8581;47.334;11.190;2023-05-29T15:24:56;4.37;;;3.87;;
16928;SDS011;8581;47.334;11.190;2023-05-29T15:27:27;4.45;;;3.58;;
16928;SDS011;8581;47.334;11.190;2023-05-29T15:32:42;5.03;;;3.83;;
16928;SDS011;8581;47.334;11.190;2023-05-29T15:35:14;6.55;;;3.90;;
16928;SDS011;8581;47.334;11.190;2023-05-29T15:37:45;5.65;;;3.58;;
16928;SDS011;8581;47.334;11.190;2023-05-29T15:40:16;4.15;;;3.77;;
16928;SDS011;8581;47.334;11.190;2023-05-29T15:42:48;7.90;;;3.92;;
16928;SDS011;8581;47.334;11.190;2023-05-29T15:45:20;4.25;;;3.60;;
16928;SDS011;8581;47.334;11.190;2023-05-29T15:47:52;4.75;;;3.92;;
16928;SDS011;8581;47.334;11.190;2023-05-29T15:50:23;4.08;;;3.67;;
16928;SDS011;8581;47.334;11.190;2023-05-29T15:52:54;4.28;;;3.87;;
16928;SDS011;8581;47.334;11.190;2023-05-29T15:55:26;7.15;;;4.05;;